sensor_id;sensor_type;location;lat;lon;timestamp;temperature;humidity
11647;DHT22;5880;52.342;9.662;2023-08-08T00:01:18;16.80;63.10
11647;DHT22;5880;52.342;9.662;2023-08-08T00:03:44;16.80;63.10
11647;DHT22;5880;52.342;9.662;2023-08-08T00:06:09;16.70;63.20
11647;DHT22;5880;52.342;9.662;2023-08-08T00:08:35;16.80;63.30
11647;DHT22;5880;52.342;9.662;2023-08-08T00:11:01;16.70;63.40
11647;DHT22;5880;52.342;9.662;2023-08-08T00:13:27;16.70;63.50
11647;DHT22;5880;52.342;9.662;2023-08-08T00:15:52;16.80;63.60
11647;DHT22;5880;52.342;9.662;2023-08-08T00:18:18;16.70;63.70
11647;DHT22;5880;52.342;9.662;2023-08-08T00:20:44;16.70;63.80
11647;DHT22;5880;52.342;9.662;2023-08-08T00:23:09;16.70;63.90
11647;DHT22;5880;52.342;9.662;2023-08-08T00:25:36;16.70;63.90
11647;DHT22;5880;52.342;9.662;2023-08-08T00:28:02;16.70;64.10
11647;DHT22;5880;52.342;9.662;2023-08-08T00:30:28;16.70;64.00
11647;DHT22;5880;52.342;9.662;2023-08-08T00:32:54;16.70;64.00
11647;DHT22;5880;52.342;9.662;2023-08-08T00:35:20;16.70;64.80
11647;DHT22;5880;52.342;9.662;2023-08-08T00:37:45;16.70;64.20
11647;DHT22;5880;52.342;9.662;2023-08-08T00:40:11;16.70;64.10
11647;DHT22;5880;52.342;9.662;2023-08-08T00:42:36;16.70;64.10
11647;DHT22;5880;52.342;9.662;2023-08-08T00:45:02;16.70;64.00
11647;DHT22;5880;52.342;9.662;2023-08-08T00:47:32;16.70;64.10
11647;DHT22;5880;52.342;9.662;2023-08-08T00:50:00;16.70;64.20
11647;DHT22;5880;52.342;9.662;2023-08-08T00:52:28;16.70;64.10
11647;DHT22;5880;52.342;9.662;2023-08-08T00:54:54;16.70;64.10
11647;DHT22;5880;52.342;9.662;2023-08-08T00:57:20;16.70;64.10
11647;DHT22;5880;52.342;9.662;2023-08-08T00:59:46;16.70;64.20
11647;DHT22;5880;52.342;9.662;2023-08-08T01:02:12;16.70;64.30
11647;DHT22;5880;52.342;9.662;2023-08-08T01:04:38;16.70;64.40
11647;DHT22;5880;52.342;9.662;2023-08-08T01:09:59;16.70;64.40
11647;DHT22;5880;52.342;9.662;2023-08-08T01:12:35;16.70;64.40
11647;DHT22;5880;52.342;9.662;2023-08-08T01:15:07;16.70;64.30
11647;DHT22;5880;52.342;9.662;2023-08-08T01:17:35;16.60;64.50
11647;DHT22;5880;52.342;9.662;2023-08-08T01:20:05;16.60;64.50
11647;DHT22;5880;52.342;9.662;2023-08-08T01:22:40;16.60;64.50
11647;DHT22;5880;52.342;9.662;2023-08-08T01:25:13;16.70;64.70
11647;DHT22;5880;52.342;9.662;2023-08-08T01:27:39;16.70;64.60
11647;DHT22;5880;52.342;9.662;2023-08-08T01:30:07;16.70;64.70
11647;DHT22;5880;52.342;9.662;2023-08-08T01:32:33;16.60;64.70
11647;DHT22;5880;52.342;9.662;2023-08-08T01:34:59;16.70;64.70
11647;DHT22;5880;52.342;9.662;2023-08-08T01:37:41;16.70;64.70
11647;DHT22;5880;52.342;9.662;2023-08-08T01:40:13;16.70;65.20
11647;DHT22;5880;52.342;9.662;2023-08-08T01:42:43;16.70;64.80
11647;DHT22;5880;52.342;9.662;2023-08-08T01:45:11;16.70;64.80
11647;DHT22;5880;52.342;9.662;2023-08-08T01:47:38;16.60;64.70
11647;DHT22;5880;52.342;9.662;2023-08-08T01:50:04;16.60;64.70
11647;DHT22;5880;52.342;9.662;2023-08-08T01:52:31;16.60;64.70
11647;DHT22;5880;52.342;9.662;2023-08-08T01:54:56;16.60;64.70
11647;DHT22;5880;52.342;9.662;2023-08-08T01:57:22;16.60;64.80
11647;DHT22;5880;52.342;9.662;2023-08-08T01:59:48;16.60;65.00
11647;DHT22;5880;52.342;9.662;2023-08-08T02:02:13;16.60;65.10
11647;DHT22;5880;52.342;9.662;2023-08-08T02:04:40;16.60;65.10
11647;DHT22;5880;52.342;9.662;2023-08-08T02:07:06;16.70;65.10
11647;DHT22;5880;52.342;9.662;2023-08-08T02:09:31;16.60;65.00
11647;DHT22;5880;52.342;9.662;2023-08-08T02:11:57;16.60;65.10
11647;DHT22;5880;52.342;9.662;2023-08-08T02:14:23;16.60;65.10
11647;DHT22;5880;52.342;9.662;2023-08-08T02:16:48;16.60;65.10
11647;DHT22;5880;52.342;9.662;2023-08-08T02:19:14;16.60;65.10
11647;DHT22;5880;52.342;9.662;2023-08-08T02:21:41;16.60;65.10
11647;DHT22;5880;52.342;9.662;2023-08-08T02:24:06;17.10;65.50
11647;DHT22;5880;52.342;9.662;2023-08-08T02:26:32;16.70;65.30
11647;DHT22;5880;52.342;9.662;2023-08-08T02:28:58;17.00;65.50
11647;DHT22;5880;52.342;9.662;2023-08-08T02:31:23;16.70;65.40
11647;DHT22;5880;52.342;9.662;2023-08-08T02:33:50;16.70;65.50
11647;DHT22;5880;52.342;9.662;2023-08-08T02:36:17;16.70;65.60
11647;DHT22;5880;52.342;9.662;2023-08-08T02:38:43;16.70;65.70
11647;DHT22;5880;52.342;9.662;2023-08-08T02:41:09;16.70;65.80
11647;DHT22;5880;52.342;9.662;2023-08-08T02:43:35;16.80;65.90
11647;DHT22;5880;52.342;9.662;2023-08-08T02:46:01;16.70;66.00
11647;DHT22;5880;52.342;9.662;2023-08-08T02:48:28;16.80;66.10
11647;DHT22;5880;52.342;9.662;2023-08-08T02:50:55;16.80;66.20
11647;DHT22;5880;52.342;9.662;2023-08-08T02:53:20;16.90;66.30
11647;DHT22;5880;52.342;9.662;2023-08-08T02:55:47;16.90;66.20
11647;DHT22;5880;52.342;9.662;2023-08-08T02:58:12;16.90;66.10
11647;DHT22;5880;52.342;9.662;2023-08-08T03:00:38;16.90;66.20
11647;DHT22;5880;52.342;9.662;2023-08-08T03:03:04;17.00;66.30
11647;DHT22;5880;52.342;9.662;2023-08-08T03:05:30;17.00;66.20
11647;DHT22;5880;52.342;9.662;2023-08-08T03:07:55;17.00;66.20
11647;DHT22;5880;52.342;9.662;2023-08-08T03:10:21;17.00;66.20
11647;DHT22;5880;52.342;9.662;2023-08-08T03:12:47;17.10;66.20
11647;DHT22;5880;52.342;9.662;2023-08-08T03:15:13;17.00;66.00
11647;DHT22;5880;52.342;9.662;2023-08-08T03:17:39;17.10;66.10
11647;DHT22;5880;52.342;9.662;2023-08-08T03:20:05;17.10;66.10
11647;DHT22;5880;52.342;9.662;2023-08-08T03:22:32;17.10;66.20
11647;DHT22;5880;52.342;9.662;2023-08-08T03:24:58;17.10;66.20
11647;DHT22;5880;52.342;9.662;2023-08-08T03:27:24;17.10;66.30
11647;DHT22;5880;52.342;9.662;2023-08-08T03:29:50;17.20;66.30
11647;DHT22;5880;52.342;9.662;2023-08-08T03:32:16;17.20;66.20
11647;DHT22;5880;52.342;9.662;2023-08-08T03:34:42;17.20;66.30
11647;DHT22;5880;52.342;9.662;2023-08-08T03:37:08;17.20;66.20
11647;DHT22;5880;52.342;9.662;2023-08-08T03:39:33;17.20;66.20
11647;DHT22;5880;52.342;9.662;2023-08-08T03:41:59;17.20;66.30
11647;DHT22;5880;52.342;9.662;2023-08-08T03:44:24;17.20;66.30
11647;DHT22;5880;52.342;9.662;2023-08-08T03:46:50;17.20;66.20
11647;DHT22;5880;52.342;9.662;2023-08-08T03:49:16;17.20;66.20
11647;DHT22;5880;52.342;9.662;2023-08-08T03:51:42;17.20;66.10
11647;DHT22;5880;52.342;9.662;2023-08-08T03:54:08;17.20;66.10
11647;DHT22;5880;52.342;9.662;2023-08-08T03:56:34;17.20;66.10
11647;DHT22;5880;52.342;9.662;2023-08-08T03:58:59;17.20;66.10
11647;DHT22;5880;52.342;9.662;2023-08-08T04:01:25;17.20;66.10
11647;DHT22;5880;52.342;9.662;2023-08-08T04:03:51;17.20;66.10
11647;DHT22;5880;52.342;9.662;2023-08-08T04:06:16;17.20;66.00
11647;DHT22;5880;52.342;9.662;2023-08-08T04:08:42;17.20;66.00
11647;DHT22;5880;52.342;9.662;2023-08-08T04:11:08;17.20;66.10
11647;DHT22;5880;52.342;9.662;2023-08-08T04:13:33;17.20;66.10
11647;DHT22;5880;52.342;9.662;2023-08-08T04:16:00;17.20;66.00
11647;DHT22;5880;52.342;9.662;2023-08-08T04:18:26;17.20;66.10
11647;DHT22;5880;52.342;9.662;2023-08-08T04:20:52;17.20;66.20
11647;DHT22;5880;52.342;9.662;2023-08-08T04:23:17;17.20;66.20
11647;DHT22;5880;52.342;9.662;2023-08-08T04:25:43;17.20;66.30
11647;DHT22;5880;52.342;9.662;2023-08-08T04:28:09;17.20;66.20
11647;DHT22;5880;52.342;9.662;2023-08-08T04:30:35;17.20;66.30
11647;DHT22;5880;52.342;9.662;2023-08-08T04:33:01;17.20;66.30
11647;DHT22;5880;52.342;9.662;2023-08-08T04:35:26;17.30;66.40
11647;DHT22;5880;52.342;9.662;2023-08-08T04:37:52;17.30;66.40
11647;DHT22;5880;52.342;9.662;2023-08-08T04:40:18;17.30;66.30
11647;DHT22;5880;52.342;9.662;2023-08-08T04:42:43;17.40;66.40
11647;DHT22;5880;52.342;9.662;2023-08-08T04:45:09;17.30;66.40
11647;DHT22;5880;52.342;9.662;2023-08-08T04:47:35;17.30;66.40
11647;DHT22;5880;52.342;9.662;2023-08-08T04:50:01;17.30;66.40
11647;DHT22;5880;52.342;9.662;2023-08-08T04:52:26;17.30;66.50
11647;DHT22;5880;52.342;9.662;2023-08-08T04:54:52;17.30;66.50
11647;DHT22;5880;52.342;9.662;2023-08-08T04:57:17;17.40;66.50
11647;DHT22;5880;52.342;9.662;2023-08-08T04:59:43;17.40;66.60
11647;DHT22;5880;52.342;9.662;2023-08-08T05:02:09;17.40;66.60
11647;DHT22;5880;52.342;9.662;2023-08-08T05:04:35;17.40;66.60
11647;DHT22;5880;52.342;9.662;2023-08-08T05:07:00;17.50;66.60
11647;DHT22;5880;52.342;9.662;2023-08-08T05:09:26;17.50;66.60
11647;DHT22;5880;52.342;9.662;2023-08-08T05:11:55;17.50;66.60
11647;DHT22;5880;52.342;9.662;2023-08-08T05:14:20;17.50;66.70
11647;DHT22;5880;52.342;9.662;2023-08-08T05:16:46;17.50;66.70
11647;DHT22;5880;52.342;9.662;2023-08-08T05:19:12;17.60;66.60
11647;DHT22;5880;52.342;9.662;2023-08-08T05:21:38;17.60;66.50
11647;DHT22;5880;52.342;9.662;2023-08-08T05:24:04;17.60;66.50
11647;DHT22;5880;52.342;9.662;2023-08-08T05:26:30;17.60;66.40
11647;DHT22;5880;52.342;9.662;2023-08-08T05:28:55;17.70;66.50
11647;DHT22;5880;52.342;9.662;2023-08-08T05:31:21;17.70;66.50
11647;DHT22;5880;52.342;9.662;2023-08-08T05:33:48;17.70;66.60
11647;DHT22;5880;52.342;9.662;2023-08-08T05:36:14;17.70;67.40
11647;DHT22;5880;52.342;9.662;2023-08-08T05:38:40;17.70;66.60
11647;DHT22;5880;52.342;9.662;2023-08-08T05:41:07;17.70;66.60
11647;DHT22;5880;52.342;9.662;2023-08-08T05:43:33;17.80;66.60
11647;DHT22;5880;52.342;9.662;2023-08-08T05:45:59;17.80;67.40
11647;DHT22;5880;52.342;9.662;2023-08-08T05:48:24;17.80;66.60
11647;DHT22;5880;52.342;9.662;2023-08-08T05:50:50;17.80;66.70
11647;DHT22;5880;52.342;9.662;2023-08-08T05:53:16;17.90;66.80
11647;DHT22;5880;52.342;9.662;2023-08-08T05:55:42;18.00;66.80
11647;DHT22;5880;52.342;9.662;2023-08-08T05:58:08;17.90;66.80
11647;DHT22;5880;52.342;9.662;2023-08-08T06:00:34;17.90;66.70
11647;DHT22;5880;52.342;9.662;2023-08-08T06:03:00;18.00;66.80
11647;DHT22;5880;52.342;9.662;2023-08-08T06:05:26;18.00;66.80
11647;DHT22;5880;52.342;9.662;2023-08-08T06:07:51;18.00;66.70
11647;DHT22;5880;52.342;9.662;2023-08-08T06:10:17;18.10;66.70
11647;DHT22;5880;52.342;9.662;2023-08-08T06:12:43;18.10;66.80
11647;DHT22;5880;52.342;9.662;2023-08-08T06:15:09;18.20;66.80
11647;DHT22;5880;52.342;9.662;2023-08-08T06:17:34;18.20;66.80
11647;DHT22;5880;52.342;9.662;2023-08-08T06:20:00;18.20;66.80
11647;DHT22;5880;52.342;9.662;2023-08-08T06:22:26;18.30;66.80
11647;DHT22;5880;52.342;9.662;2023-08-08T06:24:51;18.40;66.80
11647;DHT22;5880;52.342;9.662;2023-08-08T06:27:17;18.40;67.30
11647;DHT22;5880;52.342;9.662;2023-08-08T06:29:43;18.50;68.20
11647;DHT22;5880;52.342;9.662;2023-08-08T06:32:09;18.70;69.00
11647;DHT22;5880;52.342;9.662;2023-08-08T06:34:34;18.90;69.20
11647;DHT22;5880;52.342;9.662;2023-08-08T06:37:00;19.10;68.80
11647;DHT22;5880;52.342;9.662;2023-08-08T06:39:26;19.30;68.60
11647;DHT22;5880;52.342;9.662;2023-08-08T06:41:52;19.60;68.30
11647;DHT22;5880;52.342;9.662;2023-08-08T06:44:17;19.70;67.60
11647;DHT22;5880;52.342;9.662;2023-08-08T06:46:44;19.90;67.30
11647;DHT22;5880;52.342;9.662;2023-08-08T06:49:10;20.00;67.10
11647;DHT22;5880;52.342;9.662;2023-08-08T06:51:36;20.20;67.50
11647;DHT22;5880;52.342;9.662;2023-08-08T06:54:02;20.30;68.10
11647;DHT22;5880;52.342;9.662;2023-08-08T06:56:29;20.50;67.80
11647;DHT22;5880;52.342;9.662;2023-08-08T06:58:54;20.70;66.60
11647;DHT22;5880;52.342;9.662;2023-08-08T07:01:20;20.80;66.40
11647;DHT22;5880;52.342;9.662;2023-08-08T07:03:46;20.90;66.20
11647;DHT22;5880;52.342;9.662;2023-08-08T07:06:12;21.10;66.10
11647;DHT22;5880;52.342;9.662;2023-08-08T07:08:38;21.10;65.90
11647;DHT22;5880;52.342;9.662;2023-08-08T07:11:07;21.30;65.80
11647;DHT22;5880;52.342;9.662;2023-08-08T07:13:33;21.40;65.60
11647;DHT22;5880;52.342;9.662;2023-08-08T07:16:02;21.50;65.40
11647;DHT22;5880;52.342;9.662;2023-08-08T07:18:27;21.70;64.90
11647;DHT22;5880;52.342;9.662;2023-08-08T07:20:53;21.80;63.90
11647;DHT22;5880;52.342;9.662;2023-08-08T07:23:19;21.90;63.10
11647;DHT22;5880;52.342;9.662;2023-08-08T07:25:47;22.00;62.90
11647;DHT22;5880;52.342;9.662;2023-08-08T07:28:13;21.90;61.70
11647;DHT22;5880;52.342;9.662;2023-08-08T07:30:40;21.80;62.10
11647;DHT22;5880;52.342;9.662;2023-08-08T07:33:06;21.80;61.80
11647;DHT22;5880;52.342;9.662;2023-08-08T07:35:35;21.70;61.80
11647;DHT22;5880;52.342;9.662;2023-08-08T07:38:01;21.70;61.40
11647;DHT22;5880;52.342;9.662;2023-08-08T07:40:27;21.70;62.00
11647;DHT22;5880;52.342;9.662;2023-08-08T07:42:52;21.70;61.90
11647;DHT22;5880;52.342;9.662;2023-08-08T07:45:18;21.70;62.00
11647;DHT22;5880;52.342;9.662;2023-08-08T07:47:44;21.70;61.80
11647;DHT22;5880;52.342;9.662;2023-08-08T07:50:10;21.80;61.60
11647;DHT22;5880;52.342;9.662;2023-08-08T07:52:37;21.70;62.00
11647;DHT22;5880;52.342;9.662;2023-08-08T07:55:04;21.80;61.60
11647;DHT22;5880;52.342;9.662;2023-08-08T07:57:31;21.70;61.40
11647;DHT22;5880;52.342;9.662;2023-08-08T08:00:00;21.80;61.20
11647;DHT22;5880;52.342;9.662;2023-08-08T08:02:32;21.70;61.00
11647;DHT22;5880;52.342;9.662;2023-08-08T08:04:58;21.60;60.70
11647;DHT22;5880;52.342;9.662;2023-08-08T08:07:23;21.60;60.80
11647;DHT22;5880;52.342;9.662;2023-08-08T08:09:49;21.50;60.80
11647;DHT22;5880;52.342;9.662;2023-08-08T08:12:15;21.50;60.90
11647;DHT22;5880;52.342;9.662;2023-08-08T08:14:40;21.50;60.40
11647;DHT22;5880;52.342;9.662;2023-08-08T08:17:06;21.40;60.40
11647;DHT22;5880;52.342;9.662;2023-08-08T08:19:32;21.30;60.60
11647;DHT22;5880;52.342;9.662;2023-08-08T08:21:58;21.30;60.40
11647;DHT22;5880;52.342;9.662;2023-08-08T08:24:23;21.30;60.50
11647;DHT22;5880;52.342;9.662;2023-08-08T08:26:49;21.30;60.00
11647;DHT22;5880;52.342;9.662;2023-08-08T08:29:14;21.30;60.50
11647;DHT22;5880;52.342;9.662;2023-08-08T08:31:40;21.50;60.90
11647;DHT22;5880;52.342;9.662;2023-08-08T08:34:06;21.40;60.50
11647;DHT22;5880;52.342;9.662;2023-08-08T08:36:31;21.40;61.00
11647;DHT22;5880;52.342;9.662;2023-08-08T08:38:57;21.40;60.80
11647;DHT22;5880;52.342;9.662;2023-08-08T08:41:26;21.50;60.50
11647;DHT22;5880;52.342;9.662;2023-08-08T08:43:54;21.50;60.30
11647;DHT22;5880;52.342;9.662;2023-08-08T08:46:21;21.50;60.30
11647;DHT22;5880;52.342;9.662;2023-08-08T08:48:49;21.60;60.30
11647;DHT22;5880;52.342;9.662;2023-08-08T08:51:16;21.50;59.40
11647;DHT22;5880;52.342;9.662;2023-08-08T08:53:43;21.50;60.00
11647;DHT22;5880;52.342;9.662;2023-08-08T08:56:14;21.50;60.50
11647;DHT22;5880;52.342;9.662;2023-08-08T08:58:42;21.50;60.20
11647;DHT22;5880;52.342;9.662;2023-08-08T09:01:11;21.40;58.80
11647;DHT22;5880;52.342;9.662;2023-08-08T09:03:38;21.40;58.60
11647;DHT22;5880;52.342;9.662;2023-08-08T09:06:05;21.30;59.10
11647;DHT22;5880;52.342;9.662;2023-08-08T09:08:31;21.20;59.20
11647;DHT22;5880;52.342;9.662;2023-08-08T09:10:57;21.20;60.00
11647;DHT22;5880;52.342;9.662;2023-08-08T09:13:23;21.10;59.30
11647;DHT22;5880;52.342;9.662;2023-08-08T09:15:52;21.00;59.70
11647;DHT22;5880;52.342;9.662;2023-08-08T09:18:18;21.00;60.00
11647;DHT22;5880;52.342;9.662;2023-08-08T09:20:48;21.00;60.30
11647;DHT22;5880;52.342;9.662;2023-08-08T09:23:14;21.00;60.60
11647;DHT22;5880;52.342;9.662;2023-08-08T09:25:40;21.10;61.40
11647;DHT22;5880;52.342;9.662;2023-08-08T09:28:06;21.10;61.60
11647;DHT22;5880;52.342;9.662;2023-08-08T09:30:32;21.20;61.80
11647;DHT22;5880;52.342;9.662;2023-08-08T09:33:00;21.20;61.50
11647;DHT22;5880;52.342;9.662;2023-08-08T09:35:28;21.30;61.00
11647;DHT22;5880;52.342;9.662;2023-08-08T09:37:55;21.40;60.80
11647;DHT22;5880;52.342;9.662;2023-08-08T09:40:22;21.40;60.80
11647;DHT22;5880;52.342;9.662;2023-08-08T09:42:51;21.30;59.30
11647;DHT22;5880;52.342;9.662;2023-08-08T09:45:18;21.30;59.40
11647;DHT22;5880;52.342;9.662;2023-08-08T09:47:45;21.30;59.90
11647;DHT22;5880;52.342;9.662;2023-08-08T09:50:11;21.30;60.20
11647;DHT22;5880;52.342;9.662;2023-08-08T09:52:38;21.20;59.90
11647;DHT22;5880;52.342;9.662;2023-08-08T09:55:04;21.20;60.10
11647;DHT22;5880;52.342;9.662;2023-08-08T09:57:31;21.20;60.30
11647;DHT22;5880;52.342;9.662;2023-08-08T09:59:58;21.20;60.50
11647;DHT22;5880;52.342;9.662;2023-08-08T10:02:24;21.20;61.00
11647;DHT22;5880;52.342;9.662;2023-08-08T10:04:50;21.30;61.10
11647;DHT22;5880;52.342;9.662;2023-08-08T10:07:18;21.40;60.80
11647;DHT22;5880;52.342;9.662;2023-08-08T10:09:44;21.40;60.60
11647;DHT22;5880;52.342;9.662;2023-08-08T10:12:11;21.50;60.40
11647;DHT22;5880;52.342;9.662;2023-08-08T10:14:41;21.50;60.10
11647;DHT22;5880;52.342;9.662;2023-08-08T10:17:08;21.50;60.10
11647;DHT22;5880;52.342;9.662;2023-08-08T10:19:38;21.40;60.30
11647;DHT22;5880;52.342;9.662;2023-08-08T10:22:04;21.50;60.10
11647;DHT22;5880;52.342;9.662;2023-08-08T10:24:34;21.40;60.10
11647;DHT22;5880;52.342;9.662;2023-08-08T10:27:02;21.50;60.10
11647;DHT22;5880;52.342;9.662;2023-08-08T10:29:31;21.40;60.10
11647;DHT22;5880;52.342;9.662;2023-08-08T10:32:03;21.40;59.20
11647;DHT22;5880;52.342;9.662;2023-08-08T10:34:41;21.40;59.30
11647;DHT22;5880;52.342;9.662;2023-08-08T10:37:11;21.40;59.40
11647;DHT22;5880;52.342;9.662;2023-08-08T10:40:00;21.40;59.20
11647;DHT22;5880;52.342;9.662;2023-08-08T10:42:31;21.50;58.80
11647;DHT22;5880;52.342;9.662;2023-08-08T10:45:00;21.50;59.50
11647;DHT22;5880;52.342;9.662;2023-08-08T10:47:36;21.60;59.00
11647;DHT22;5880;52.342;9.662;2023-08-08T10:52:53;21.70;59.10
11647;DHT22;5880;52.342;9.662;2023-08-08T10:55:25;21.70;58.40
11647;DHT22;5880;52.342;9.662;2023-08-08T11:00:24;21.70;59.30
11647;DHT22;5880;52.342;9.662;2023-08-08T11:02:55;21.70;58.50
11647;DHT22;5880;52.342;9.662;2023-08-08T11:05:24;21.70;59.60
11647;DHT22;5880;52.342;9.662;2023-08-08T11:07:51;21.70;58.70
11647;DHT22;5880;52.342;9.662;2023-08-08T11:10:17;21.70;58.50
11647;DHT22;5880;52.342;9.662;2023-08-08T11:13:01;21.70;58.70
11647;DHT22;5880;52.342;9.662;2023-08-08T11:15:31;21.80;56.70
11647;DHT22;5880;52.342;9.662;2023-08-08T11:17:59;21.80;58.90
11647;DHT22;5880;52.342;9.662;2023-08-08T11:20:33;21.90;58.70
11647;DHT22;5880;52.342;9.662;2023-08-08T11:23:01;21.80;58.30
11647;DHT22;5880;52.342;9.662;2023-08-08T11:25:30;22.00;57.30
11647;DHT22;5880;52.342;9.662;2023-08-08T11:27:56;22.10;57.00
11647;DHT22;5880;52.342;9.662;2023-08-08T11:30:27;22.20;56.90
11647;DHT22;5880;52.342;9.662;2023-08-08T11:32:54;22.30;57.30
11647;DHT22;5880;52.342;9.662;2023-08-08T11:35:23;22.40;57.20
11647;DHT22;5880;52.342;9.662;2023-08-08T11:37:51;22.50;56.40
11647;DHT22;5880;52.342;9.662;2023-08-08T11:40:19;22.50;56.00
11647;DHT22;5880;52.342;9.662;2023-08-08T11:42:46;22.50;56.30
11647;DHT22;5880;52.342;9.662;2023-08-08T11:45:13;22.50;56.00
11647;DHT22;5880;52.342;9.662;2023-08-08T11:47:40;22.40;56.20
11647;DHT22;5880;52.342;9.662;2023-08-08T11:50:07;22.40;54.70
11647;DHT22;5880;52.342;9.662;2023-08-08T11:52:42;22.30;55.60
11647;DHT22;5880;52.342;9.662;2023-08-08T11:55:10;22.40;55.80
11647;DHT22;5880;52.342;9.662;2023-08-08T11:57:38;22.20;55.70
11647;DHT22;5880;52.342;9.662;2023-08-08T12:00:09;22.20;56.10
11647;DHT22;5880;52.342;9.662;2023-08-08T12:02:38;22.20;56.30
11647;DHT22;5880;52.342;9.662;2023-08-08T12:05:10;22.20;56.90
11647;DHT22;5880;52.342;9.662;2023-08-08T12:07:38;22.20;56.70
11647;DHT22;5880;52.342;9.662;2023-08-08T12:10:19;22.20;56.70
11647;DHT22;5880;52.342;9.662;2023-08-08T12:12:51;22.20;56.70
11647;DHT22;5880;52.342;9.662;2023-08-08T12:15:22;22.20;56.10
11647;DHT22;5880;52.342;9.662;2023-08-08T12:17:47;22.20;56.10
11647;DHT22;5880;52.342;9.662;2023-08-08T12:20:14;22.20;56.00
11647;DHT22;5880;52.342;9.662;2023-08-08T12:22:40;22.20;56.10
11647;DHT22;5880;52.342;9.662;2023-08-08T12:25:06;22.20;56.00
11647;DHT22;5880;52.342;9.662;2023-08-08T12:27:33;22.30;55.90
11647;DHT22;5880;52.342;9.662;2023-08-08T12:29:59;22.30;55.80
11647;DHT22;5880;52.342;9.662;2023-08-08T12:32:26;22.30;55.70
11647;DHT22;5880;52.342;9.662;2023-08-08T12:34:57;22.30;56.10
11647;DHT22;5880;52.342;9.662;2023-08-08T12:37:23;22.30;56.20
11647;DHT22;5880;52.342;9.662;2023-08-08T12:39:49;22.30;56.30
11647;DHT22;5880;52.342;9.662;2023-08-08T12:42:16;22.40;56.10
11647;DHT22;5880;52.342;9.662;2023-08-08T12:44:42;22.40;55.80
11647;DHT22;5880;52.342;9.662;2023-08-08T12:47:08;22.50;56.10
11647;DHT22;5880;52.342;9.662;2023-08-08T12:49:34;22.50;56.30
11647;DHT22;5880;52.342;9.662;2023-08-08T12:51:59;22.50;55.90
11647;DHT22;5880;52.342;9.662;2023-08-08T12:54:25;22.60;54.80
11647;DHT22;5880;52.342;9.662;2023-08-08T12:56:51;22.70;55.80
11647;DHT22;5880;52.342;9.662;2023-08-08T12:59:16;22.70;55.20
11647;DHT22;5880;52.342;9.662;2023-08-08T13:01:42;22.70;54.80
11647;DHT22;5880;52.342;9.662;2023-08-08T13:04:08;22.60;54.70
11647;DHT22;5880;52.342;9.662;2023-08-08T13:06:34;22.40;54.60
11647;DHT22;5880;52.342;9.662;2023-08-08T13:09:00;22.20;54.60
11647;DHT22;5880;52.342;9.662;2023-08-08T13:11:26;22.00;55.10
11647;DHT22;5880;52.342;9.662;2023-08-08T13:13:52;21.70;55.60
11647;DHT22;5880;52.342;9.662;2023-08-08T13:16:18;21.40;56.10
11647;DHT22;5880;52.342;9.662;2023-08-08T13:18:43;21.10;56.80
11647;DHT22;5880;52.342;9.662;2023-08-08T13:21:09;20.90;57.50
11647;DHT22;5880;52.342;9.662;2023-08-08T13:23:36;20.70;58.40
11647;DHT22;5880;52.342;9.662;2023-08-08T13:26:02;20.60;59.00
11647;DHT22;5880;52.342;9.662;2023-08-08T13:28:29;20.50;59.80
11647;DHT22;5880;52.342;9.662;2023-08-08T13:30:55;20.50;60.30
11647;DHT22;5880;52.342;9.662;2023-08-08T13:33:21;20.40;60.70
11647;DHT22;5880;52.342;9.662;2023-08-08T13:35:47;20.50;60.80
11647;DHT22;5880;52.342;9.662;2023-08-08T13:38:13;20.40;61.20
11647;DHT22;5880;52.342;9.662;2023-08-08T13:40:43;20.40;61.60
11647;DHT22;5880;52.342;9.662;2023-08-08T13:43:09;20.50;62.10
11647;DHT22;5880;52.342;9.662;2023-08-08T13:45:35;20.60;62.30
11647;DHT22;5880;52.342;9.662;2023-08-08T13:48:01;20.70;62.80
11647;DHT22;5880;52.342;9.662;2023-08-08T13:50:27;20.70;62.50
11647;DHT22;5880;52.342;9.662;2023-08-08T13:52:53;20.80;62.20
11647;DHT22;5880;52.342;9.662;2023-08-08T13:55:19;20.80;61.70
11647;DHT22;5880;52.342;9.662;2023-08-08T13:57:45;20.90;61.70
11647;DHT22;5880;52.342;9.662;2023-08-08T14:00:11;20.90;61.50
11647;DHT22;5880;52.342;9.662;2023-08-08T14:02:38;20.90;61.40
11647;DHT22;5880;52.342;9.662;2023-08-08T14:05:04;20.80;60.80
11647;DHT22;5880;52.342;9.662;2023-08-08T14:07:33;20.70;60.50
11647;DHT22;5880;52.342;9.662;2023-08-08T14:09:59;20.60;60.80
11647;DHT22;5880;52.342;9.662;2023-08-08T14:12:25;20.40;61.50
11647;DHT22;5880;52.342;9.662;2023-08-08T14:14:50;20.40;62.10
11647;DHT22;5880;52.342;9.662;2023-08-08T14:17:16;20.30;62.80
11647;DHT22;5880;52.342;9.662;2023-08-08T14:19:42;20.30;63.10
11647;DHT22;5880;52.342;9.662;2023-08-08T14:22:07;20.30;63.40
11647;DHT22;5880;52.342;9.662;2023-08-08T14:24:33;20.30;63.70
11647;DHT22;5880;52.342;9.662;2023-08-08T14:26:59;20.30;63.80
11647;DHT22;5880;52.342;9.662;2023-08-08T14:29:24;20.40;64.00
11647;DHT22;5880;52.342;9.662;2023-08-08T14:31:50;20.50;63.80
11647;DHT22;5880;52.342;9.662;2023-08-08T14:34:16;20.40;63.80
11647;DHT22;5880;52.342;9.662;2023-08-08T14:36:41;20.40;63.90
11647;DHT22;5880;52.342;9.662;2023-08-08T14:39:07;20.50;64.20
11647;DHT22;5880;52.342;9.662;2023-08-08T14:41:33;20.40;64.10
11647;DHT22;5880;52.342;9.662;2023-08-08T14:43:58;20.50;63.90
11647;DHT22;5880;52.342;9.662;2023-08-08T14:46:24;20.50;63.70
11647;DHT22;5880;52.342;9.662;2023-08-08T14:48:50;20.50;63.00
11647;DHT22;5880;52.342;9.662;2023-08-08T14:51:16;20.40;62.40
11647;DHT22;5880;52.342;9.662;2023-08-08T14:53:42;20.50;62.40
11647;DHT22;5880;52.342;9.662;2023-08-08T14:56:09;20.50;62.50
11647;DHT22;5880;52.342;9.662;2023-08-08T14:58:35;20.30;62.00
11647;DHT22;5880;52.342;9.662;2023-08-08T15:01:01;20.20;61.90
11647;DHT22;5880;52.342;9.662;2023-08-08T15:03:27;20.10;61.80
11647;DHT22;5880;52.342;9.662;2023-08-08T15:05:52;20.00;61.60
11647;DHT22;5880;52.342;9.662;2023-08-08T15:08:18;20.00;62.40
11647;DHT22;5880;52.342;9.662;2023-08-08T15:10:44;19.90;61.80
11647;DHT22;5880;52.342;9.662;2023-08-08T15:13:10;19.80;61.70
11647;DHT22;5880;52.342;9.662;2023-08-08T15:15:36;19.70;63.00
11647;DHT22;5880;52.342;9.662;2023-08-08T15:18:02;19.60;61.80
11647;DHT22;5880;52.342;9.662;2023-08-08T15:20:27;19.60;62.50
11647;DHT22;5880;52.342;9.662;2023-08-08T15:22:53;19.60;62.20
11647;DHT22;5880;52.342;9.662;2023-08-08T15:25:19;19.60;62.50
11647;DHT22;5880;52.342;9.662;2023-08-08T15:27:44;19.50;62.80
11647;DHT22;5880;52.342;9.662;2023-08-08T15:30:10;19.50;62.70
11647;DHT22;5880;52.342;9.662;2023-08-08T15:32:36;19.50;62.90
11647;DHT22;5880;52.342;9.662;2023-08-08T15:35:02;19.50;62.80
11647;DHT22;5880;52.342;9.662;2023-08-08T15:37:28;19.50;62.70
11647;DHT22;5880;52.342;9.662;2023-08-08T15:39:53;19.50;62.60
11647;DHT22;5880;52.342;9.662;2023-08-08T15:42:19;19.50;63.00
11647;DHT22;5880;52.342;9.662;2023-08-08T15:44:45;19.50;62.80
11647;DHT22;5880;52.342;9.662;2023-08-08T15:47:11;19.50;62.90
11647;DHT22;5880;52.342;9.662;2023-08-08T15:49:37;19.50;62.70